createdAt,value
2019-02-06T00:01:01.941Z,102291.45
2019-02-06T00:03:31.067Z,102288.31
2019-02-06T00:06:01.353Z,102289.64
2019-02-06T00:08:30.887Z,102290.97
2019-02-06T00:11:00.212Z,102298.92
2019-02-06T00:13:29.601Z,102295.43
2019-02-06T00:16:00.515Z,102297.69
2019-02-06T00:18:29.641Z,102298.00
2019-02-06T00:20:58.921Z,102298.92
2019-02-06T00:23:27.925Z,102296.67
2019-02-06T00:25:57.117Z,102294.91
2019-02-06T00:28:26.107Z,102294.47
2019-02-06T00:30:55.107Z,102298.45
2019-02-06T00:33:24.312Z,102300.70
2019-02-06T00:35:53.474Z,102299.41
2019-02-06T00:38:22.385Z,102300.96
2019-02-06T00:40:51.138Z,102299.28
2019-02-06T00:43:19.972Z,102296.23
2019-02-06T00:45:49.084Z,102289.16
2019-02-06T00:48:18.035Z,102294.02
2019-02-06T00:50:46.922Z,102297.03
2019-02-06T00:53:15.992Z,102295.25
2019-02-06T00:55:44.782Z,102288.63
2019-02-06T00:58:14.875Z,102286.81
2019-02-06T01:00:43.769Z,102290.79
2019-02-06T01:03:12.643Z,102290.34
2019-02-06T01:05:41.466Z,102288.62
2019-02-06T01:08:10.467Z,102293.93
2019-02-06T01:10:40.028Z,102300.56
2019-02-06T01:13:12.561Z,102303.20
2019-02-06T01:15:41.812Z,102303.60
2019-02-06T01:18:10.783Z,102304.05
2019-02-06T01:20:40.436Z,102298.25
2019-02-06T01:23:09.161Z,102300.91
2019-02-06T01:25:38.398Z,102296.92
2019-02-06T01:28:07.569Z,102289.91
2019-02-06T01:30:38.206Z,102293.44
2019-02-06T01:33:06.735Z,102302.28
2019-02-06T01:35:35.190Z,102293.35
2019-02-06T01:38:03.684Z,102295.16
2019-02-06T01:40:32.152Z,102300.52
2019-02-06T01:43:00.640Z,102294.33
2019-02-06T01:45:29.122Z,102301.31
2019-02-06T01:47:57.982Z,102301.31
2019-02-06T01:50:26.459Z,102304.00
2019-02-06T01:52:55.125Z,102303.56
2019-02-06T01:55:23.582Z,102297.38
2019-02-06T01:57:52.067Z,102305.38
2019-02-06T02:00:25.952Z,102295.17
2019-02-06T02:02:54.838Z,102295.65
2019-02-06T02:05:23.574Z,102297.81
2019-02-06T02:07:52.515Z,102300.42
2019-02-06T02:10:21.800Z,102297.27
2019-02-06T02:12:50.722Z,102297.28
2019-02-06T02:15:20.246Z,102294.28
2019-02-06T02:17:48.857Z,102296.39
2019-02-06T02:20:19.996Z,102288.09
2019-02-06T02:22:48.553Z,102292.47
2019-02-06T02:25:17.189Z,102296.89
2019-02-06T02:27:46.127Z,102296.48
2019-02-06T02:30:18.094Z,102302.72
2019-02-06T02:32:46.653Z,102306.21
2019-02-06T02:35:15.137Z,102306.61
2019-02-06T02:37:43.719Z,102299.98
2019-02-06T02:40:12.920Z,102304.80
2019-02-06T02:42:41.419Z,102302.98
2019-02-06T02:45:16.208Z,102306.56
2019-02-06T02:47:45.251Z,102304.80
2019-02-06T02:50:13.886Z,102302.62
2019-02-06T02:52:42.456Z,102296.83
2019-02-06T02:55:14.919Z,102295.52
2019-02-06T02:57:43.577Z,102296.00
2019-02-06T03:00:18.508Z,102291.19
2019-02-06T03:03:01.119Z,102292.85
2019-02-06T03:05:31.147Z,102293.79
2019-02-06T03:07:59.647Z,102291.09
2019-02-06T03:10:28.103Z,102288.48
2019-02-06T03:12:56.677Z,102292.45
2019-02-06T03:15:25.404Z,102292.52
2019-02-06T03:17:53.902Z,102290.70
2019-02-06T03:20:22.434Z,102285.83
2019-02-06T03:22:50.921Z,102274.78
2019-02-06T03:25:19.393Z,102277.87
2019-02-06T03:27:47.893Z,102280.14
2019-02-06T03:30:18.694Z,102273.02
2019-02-06T03:32:47.275Z,102275.72
2019-02-06T03:35:16.363Z,102278.36
2019-02-06T03:37:44.862Z,102274.88
2019-02-06T03:40:16.131Z,102271.30
2019-02-06T03:42:44.881Z,102274.78
2019-02-06T03:45:14.387Z,102265.02
2019-02-06T03:47:42.954Z,102258.39
2019-02-06T03:50:14.691Z,102262.86
2019-02-06T03:52:43.176Z,102264.66
2019-02-06T03:55:12.884Z,102267.31
2019-02-06T03:57:41.370Z,102269.09
2019-02-06T04:00:12.949Z,102277.39
2019-02-06T04:02:41.432Z,102273.06
2019-02-06T04:05:11.248Z,102264.13
2019-02-06T04:07:39.817Z,102264.61
2019-02-06T04:10:14.500Z,102268.64
2019-02-06T04:12:42.977Z,102268.98
2019-02-06T04:15:12.977Z,102268.50
2019-02-06T04:17:41.472Z,102265.02
2019-02-06T04:20:12.485Z,102265.95
2019-02-06T04:22:41.027Z,102259.70
2019-02-06T04:25:10.816Z,102253.08
2019-02-06T04:27:39.318Z,102253.92
2019-02-06T04:30:16.543Z,102257.86
2019-02-06T04:32:45.020Z,102256.48
2019-02-06T04:35:14.936Z,102257.27
2019-02-06T04:37:43.672Z,102263.02
2019-02-06T04:40:17.552Z,102260.41
2019-02-06T04:42:46.397Z,102256.78
2019-02-06T04:45:19.417Z,102261.63
2019-02-06T04:47:48.076Z,102250.59
2019-02-06T04:50:17.987Z,102246.56
2019-02-06T04:52:46.737Z,102256.28
2019-02-06T04:55:17.259Z,102246.46
2019-02-06T04:57:46.399Z,102248.23
2019-02-06T05:00:20.775Z,102241.89
2019-02-06T05:02:49.340Z,102243.72
2019-02-06T05:05:17.815Z,102243.72
2019-02-06T05:07:46.315Z,102243.10
2019-02-06T05:10:15.629Z,102241.34
2019-02-06T05:12:44.601Z,102229.98
2019-02-06T05:15:15.705Z,102234.56
2019-02-06T05:17:44.355Z,102231.80
2019-02-06T05:20:24.620Z,102234.13
2019-02-06T05:22:53.113Z,102233.02
2019-02-06T05:25:21.606Z,102240.00
2019-02-06T05:27:50.093Z,102237.42
2019-02-06T05:30:18.675Z,102241.08
2019-02-06T05:32:47.155Z,102247.76
2019-02-06T05:35:15.718Z,102243.36
2019-02-06T05:37:44.222Z,102236.87
2019-02-06T05:40:13.502Z,102244.94
2019-02-06T05:42:42.486Z,102246.58
2019-02-06T05:45:12.702Z,102247.84
2019-02-06T05:47:41.242Z,102246.20
2019-02-06T05:50:13.014Z,102243.28
2019-02-06T05:52:41.498Z,102241.89
2019-02-06T05:55:10.360Z,102246.02
2019-02-06T05:57:38.836Z,102239.68
2019-02-06T06:00:10.564Z,102234.34
2019-02-06T06:02:39.041Z,102231.31
2019-02-06T06:05:07.765Z,102230.29
2019-02-06T06:07:44.454Z,102235.51
2019-02-06T06:10:09.507Z,102241.83
2019-02-06T06:12:37.982Z,102242.15
2019-02-06T06:15:08.789Z,102237.20
2019-02-06T06:17:37.267Z,102237.53
2019-02-06T06:20:09.200Z,102249.33
2019-02-06T06:22:37.704Z,102246.70
2019-02-06T06:25:08.949Z,102243.23
2019-02-06T06:27:37.440Z,102240.08
2019-02-06T06:30:09.848Z,102235.45
2019-02-06T06:32:38.321Z,102234.21
2019-02-06T06:35:09.882Z,102240.75
2019-02-06T06:37:41.334Z,102238.92
2019-02-06T06:40:17.737Z,102243.41
2019-02-06T06:42:46.762Z,102241.06
2019-02-06T06:45:18.308Z,102241.93
2019-02-06T06:47:46.849Z,102236.71
2019-02-06T06:50:20.745Z,102230.53
2019-02-06T06:52:49.228Z,102230.18
2019-02-06T06:55:18.048Z,102223.41
2019-02-06T06:57:46.688Z,102223.51
2019-02-06T07:00:23.782Z,102218.66
2019-02-06T07:02:52.259Z,102220.27
2019-02-06T07:05:20.819Z,102222.10
2019-02-06T07:07:49.568Z,102228.27
2019-02-06T07:10:18.319Z,102221.73
2019-02-06T07:12:46.804Z,102227.92
2019-02-06T07:15:18.290Z,102219.54
2019-02-06T07:17:46.771Z,102219.96
2019-02-06T07:20:17.995Z,102216.46
2019-02-06T07:22:46.465Z,102213.89
2019-02-06T07:25:17.692Z,102203.42
2019-02-06T07:27:46.136Z,102196.39
2019-02-06T07:30:22.939Z,102183.16
2019-02-06T07:32:51.487Z,102186.39
2019-02-06T07:35:19.978Z,102176.77
2019-02-06T07:37:48.450Z,102177.62
2019-02-06T07:40:17.657Z,102178.14
2019-02-06T07:42:46.132Z,102182.50
2019-02-06T07:45:16.966Z,102193.52
2019-02-06T07:47:45.430Z,102190.88
2019-02-06T07:50:36.364Z,102197.23
2019-02-06T07:53:04.904Z,102201.66
2019-02-06T07:55:33.391Z,102202.64
2019-02-06T07:58:01.867Z,102198.81
2019-02-06T08:00:30.696Z,102204.05
2019-02-06T08:03:00.002Z,102207.06
2019-02-06T08:05:28.763Z,102207.19
2019-02-06T08:07:57.601Z,102209.02
2019-02-06T08:10:34.756Z,102204.09
2019-02-06T08:13:03.958Z,102205.61
2019-02-06T08:15:32.884Z,102202.84
2019-02-06T08:18:01.378Z,102201.70
2019-02-06T08:20:30.000Z,102204.80
2019-02-06T08:22:58.462Z,102197.62
2019-02-06T08:25:27.216Z,102197.29
2019-02-06T08:27:55.685Z,102191.73
2019-02-06T08:30:32.651Z,102191.35
2019-02-06T08:33:01.154Z,102179.95
2019-02-06T08:35:30.043Z,102180.05
2019-02-06T08:37:58.525Z,102182.52
2019-02-06T08:40:29.167Z,102185.36
2019-02-06T08:42:57.632Z,102182.37
2019-02-06T08:45:26.130Z,102180.17
2019-02-06T08:47:56.010Z,102181.58
2019-02-06T08:50:25.050Z,102176.91
2019-02-06T08:52:53.794Z,102166.38
2019-02-06T08:55:30.708Z,102163.53
2019-02-06T08:57:59.461Z,102156.38
2019-02-06T09:00:31.010Z,102149.52
2019-02-06T09:02:59.806Z,102143.52
2019-02-06T09:05:28.770Z,102136.41
2019-02-06T09:07:57.662Z,102139.67
2019-02-06T09:10:28.300Z,102140.19
2019-02-06T09:12:57.901Z,102138.48
2019-02-06T09:15:27.526Z,102148.70
2019-02-06T09:17:56.530Z,102149.28
2019-02-06T09:20:27.244Z,102152.93
2019-02-06T09:22:56.054Z,102143.21
2019-02-06T09:25:26.192Z,102139.70
2019-02-06T09:27:55.409Z,102140.13
2019-02-06T09:30:32.937Z,102131.27
2019-02-06T09:33:01.998Z,102128.67
2019-02-06T09:35:30.492Z,102133.98
2019-02-06T09:37:59.036Z,102138.85
2019-02-06T09:40:29.473Z,102137.98
2019-02-06T09:42:57.953Z,102132.18
2019-02-06T09:45:26.788Z,102133.98
2019-02-06T09:47:55.331Z,102122.42
2019-02-06T09:50:32.751Z,102124.63
2019-02-06T09:53:01.233Z,102125.05
2019-02-06T09:55:30.039Z,102125.42
2019-02-06T09:57:58.603Z,102126.69
2019-02-06T10:00:31.950Z,102124.58
2019-02-06T10:03:01.098Z,102121.06
2019-02-06T10:05:30.292Z,102120.11
2019-02-06T10:07:59.135Z,102116.18
2019-02-06T10:10:28.334Z,102107.23
2019-02-06T10:12:57.092Z,102109.94
2019-02-06T10:15:33.880Z,102111.22
2019-02-06T10:18:02.923Z,102111.62
2019-02-06T10:20:36.975Z,102103.64
2019-02-06T10:23:06.414Z,102093.41
2019-02-06T10:25:35.048Z,102091.16
2019-02-06T10:28:03.779Z,102078.30
2019-02-06T10:30:43.906Z,102079.17
2019-02-06T10:33:12.758Z,102069.38
2019-02-06T10:35:41.236Z,102067.66
2019-02-06T10:38:10.376Z,102078.76
2019-02-06T10:40:39.192Z,102067.31
2019-02-06T10:43:07.824Z,102059.16
2019-02-06T10:45:36.754Z,102052.47
2019-02-06T10:48:06.380Z,102049.66
2019-02-06T10:50:49.078Z,102045.12
2019-02-06T10:53:17.564Z,102035.23
2019-02-06T10:55:46.192Z,102039.07
2019-02-06T10:58:14.854Z,102023.88
2019-02-06T11:00:46.744Z,102029.69
2019-02-06T11:03:15.323Z,102025.77
2019-02-06T11:05:43.955Z,102022.89
2019-02-06T11:08:12.872Z,102021.03
2019-02-06T11:10:41.323Z,102018.64
2019-02-06T11:13:09.807Z,102021.34
2019-02-06T11:15:38.282Z,102000.73
2019-02-06T11:18:07.038Z,101998.44
2019-02-06T11:20:37.939Z,102005.59
2019-02-06T11:23:07.681Z,102003.07
2019-02-06T11:25:36.678Z,102004.22
2019-02-06T11:28:06.619Z,102014.20
2019-02-06T11:30:37.538Z,102016.91
2019-02-06T11:33:06.946Z,102006.92
2019-02-06T11:35:35.562Z,101995.27
2019-02-06T11:38:04.921Z,101988.24
2019-02-06T11:40:33.579Z,101996.80
2019-02-06T11:43:02.230Z,101987.84
2019-02-06T11:45:34.026Z,101982.73
2019-02-06T11:48:02.582Z,101973.27
2019-02-06T11:50:35.569Z,101972.33
2019-02-06T11:53:04.793Z,101966.84
2019-02-06T11:55:33.325Z,101965.37
2019-02-06T11:58:01.833Z,101959.63
2019-02-06T12:00:35.019Z,101955.75
2019-02-06T12:03:03.682Z,101949.59
2019-02-06T12:05:32.216Z,101941.17
2019-02-06T12:08:00.705Z,101936.95
2019-02-06T12:10:29.233Z,101929.24
2019-02-06T12:12:57.726Z,101914.75
2019-02-06T12:15:26.456Z,101915.52
2019-02-06T12:17:54.939Z,101919.50
2019-02-06T12:20:24.884Z,101915.60
2019-02-06T12:22:53.598Z,101916.81
2019-02-06T12:25:22.295Z,101908.80
2019-02-06T12:27:52.619Z,101903.12
2019-02-06T12:30:24.562Z,101908.92
2019-02-06T12:32:53.043Z,101905.86
2019-02-06T12:35:21.676Z,101894.26
2019-02-06T12:37:50.226Z,101890.73
2019-02-06T12:40:21.569Z,101881.34
2019-02-06T12:42:49.710Z,101873.28
2019-02-06T12:45:19.929Z,101873.25
2019-02-06T12:47:48.966Z,101873.28
2019-02-06T12:50:19.835Z,101864.42
2019-02-06T12:52:48.372Z,101856.05
2019-02-06T12:55:25.522Z,101858.66
2019-02-06T12:57:53.985Z,101855.48
2019-02-06T13:00:30.742Z,101848.39
2019-02-06T13:03:00.218Z,101848.81
2019-02-06T13:05:29.631Z,101843.05
2019-02-06T13:07:58.102Z,101846.17
2019-02-06T13:10:34.125Z,101840.04
2019-02-06T13:12:56.859Z,101842.23
2019-02-06T13:15:25.361Z,101835.45
2019-02-06T13:17:54.196Z,101835.50
2019-02-06T13:20:25.988Z,101829.03
2019-02-06T13:22:54.722Z,101824.88
2019-02-06T13:25:23.302Z,101814.64
2019-02-06T13:27:51.791Z,101810.66
2019-02-06T13:30:23.158Z,101807.09
2019-02-06T13:32:52.101Z,101824.94
2019-02-06T13:35:20.601Z,101818.30
2019-02-06T13:37:49.404Z,101817.02
2019-02-06T13:40:20.567Z,101815.72
2019-02-06T13:42:49.204Z,101821.93
2019-02-06T13:45:20.735Z,101817.08
2019-02-06T13:47:49.748Z,101814.89
2019-02-06T13:50:22.050Z,101804.22
2019-02-06T13:52:50.173Z,101810.89
2019-02-06T13:55:19.110Z,101806.48
2019-02-06T13:57:47.904Z,101804.33
2019-02-06T14:00:22.378Z,101804.78
2019-02-06T14:02:51.678Z,101807.09
2019-02-06T14:05:23.300Z,101792.41
2019-02-06T14:07:52.536Z,101795.09
2019-02-06T14:10:24.262Z,101794.19
2019-02-06T14:12:52.979Z,101788.95
2019-02-06T14:15:24.845Z,101785.56
2019-02-06T14:17:53.472Z,101775.33
2019-02-06T14:20:23.001Z,101777.72
2019-02-06T14:22:54.553Z,101770.16
2019-02-06T14:25:43.505Z,101765.81
2019-02-06T14:28:15.037Z,101756.27
2019-02-06T14:30:55.423Z,101766.44
2019-02-06T14:33:42.001Z,101762.45
2019-02-06T14:36:34.100Z,101763.88
2019-02-06T14:39:23.841Z,101767.44
2019-02-06T14:42:03.684Z,101760.90
2019-02-06T14:45:08.703Z,101756.91
2019-02-06T14:47:51.482Z,101765.67
2019-02-06T14:50:38.025Z,101758.24
2019-02-06T14:53:24.470Z,101760.09
2019-02-06T14:56:01.947Z,101766.37
2019-02-06T14:58:39.242Z,101762.87
2019-02-06T15:01:10.861Z,101757.14
2019-02-06T15:04:16.033Z,101757.58
2019-02-06T15:06:50.464Z,101764.72
2019-02-06T15:09:40.068Z,101754.08
2019-02-06T15:12:36.014Z,101749.70
2019-02-06T15:15:19.372Z,101746.17
2019-02-06T15:17:53.487Z,101737.31
2019-02-06T15:20:30.928Z,101725.83
2019-02-06T15:23:32.321Z,101733.38
2019-02-06T15:25:58.464Z,101736.92
2019-02-06T15:28:52.869Z,101732.94
2019-02-06T15:31:45.581Z,101735.16
2019-02-06T15:34:25.658Z,101730.30
2019-02-06T15:37:08.915Z,101733.44
2019-02-06T15:40:04.089Z,101729.91
2019-02-06T15:42:47.229Z,101724.57
2019-02-06T15:45:39.640Z,101714.84
2019-02-06T15:48:26.007Z,101717.53
2019-02-06T15:51:12.376Z,101715.31
2019-02-06T15:53:48.403Z,101712.66
2019-02-06T15:56:19.821Z,101718.87
2019-02-06T15:58:53.883Z,101707.36
2019-02-06T16:01:25.450Z,101704.70
2019-02-06T16:04:22.602Z,101698.05
2019-02-06T16:07:13.086Z,101694.55
2019-02-06T16:09:59.743Z,101690.14
2019-02-06T16:12:55.424Z,101686.59
2019-02-06T16:15:26.946Z,101677.72
2019-02-06T16:18:18.981Z,101686.13
2019-02-06T16:23:58.410Z,101686.14
2019-02-06T16:26:42.100Z,101684.37
2019-02-06T16:29:31.721Z,101686.13
2019-02-06T16:32:19.934Z,101680.39
2019-02-06T16:34:54.349Z,101674.65
2019-02-06T16:37:31.612Z,101661.38
2019-02-06T16:40:21.027Z,101661.80
2019-02-06T16:43:01.371Z,101662.25
2019-02-06T16:45:35.887Z,101656.51
2019-02-06T16:48:19.440Z,101662.25
2019-02-06T16:51:02.851Z,101661.37
2019-02-06T16:53:37.076Z,101667.56
2019-02-06T16:56:17.434Z,101662.27
2019-02-06T16:59:00.496Z,101662.70
2019-02-06T17:01:37.869Z,101664.03
2019-02-06T17:04:29.001Z,101657.82
2019-02-06T17:07:09.358Z,101654.73
2019-02-06T17:09:53.518Z,101650.32
2019-02-06T17:12:40.181Z,101649.90
2019-02-06T17:15:29.897Z,101642.35
2019-02-06T17:18:10.286Z,101643.25
2019-02-06T17:20:56.418Z,101643.23
2019-02-06T17:23:37.296Z,101644.14
2019-02-06T17:26:11.585Z,101658.71
2019-02-06T17:29:05.848Z,101655.64
2019-02-06T17:32:04.481Z,101653.85
2019-02-06T17:37:51.722Z,101655.17
2019-02-06T17:40:29.048Z,101648.53
2019-02-06T17:43:26.438Z,101638.79
2019-02-06T17:46:16.067Z,101640.13
2019-02-06T17:49:01.910Z,101641.45
2019-02-06T17:52:05.048Z,101637.47
2019-02-06T17:54:51.883Z,101628.19
2019-02-06T17:57:20.430Z,101622.45
2019-02-06T17:59:48.926Z,101613.59
2019-02-06T18:02:17.772Z,101608.70
2019-02-06T18:04:46.318Z,101605.16
2019-02-06T18:07:14.794Z,101598.09
2019-02-06T18:09:43.243Z,101593.68
2019-02-06T18:12:11.797Z,101594.54
2019-02-06T18:14:40.275Z,101591.45
2019-02-06T18:17:08.831Z,101586.16
2019-02-06T18:19:38.210Z,101586.13
2019-02-06T18:22:07.562Z,101586.58
2019-02-06T18:24:36.019Z,101586.59
2019-02-06T18:27:05.447Z,101590.58
2019-02-06T18:29:33.904Z,101601.61
2019-02-06T18:32:02.388Z,101597.17
2019-02-06T18:34:30.927Z,101598.50
2019-02-06T18:36:59.923Z,101597.64
2019-02-06T18:39:28.390Z,101601.17
2019-02-06T18:41:57.025Z,101603.37
2019-02-06T18:44:25.654Z,101605.59
2019-02-06T18:46:54.579Z,101604.69
2019-02-06T18:49:23.044Z,101608.22
2019-02-06T18:51:51.361Z,101608.23
2019-02-06T18:54:19.910Z,101607.34
2019-02-06T18:56:48.614Z,101593.19
2019-02-06T18:59:17.076Z,101594.97
2019-02-06T19:01:45.554Z,101595.39
2019-02-06T19:04:14.274Z,101592.30
2019-02-06T19:06:42.873Z,101593.17
2019-02-06T19:09:12.224Z,101587.41
2019-02-06T19:11:40.883Z,101580.34
2019-02-06T19:14:09.702Z,101577.23
2019-02-06T19:16:38.816Z,101587.00
2019-02-06T19:19:07.455Z,101578.14
2019-02-06T19:21:35.932Z,101575.47
2019-02-06T19:24:04.976Z,101562.20
2019-02-06T19:26:33.443Z,101554.25
2019-02-06T19:29:01.940Z,101554.23
2019-02-06T19:31:30.406Z,101552.89
2019-02-06T19:33:58.904Z,101550.25
2019-02-06T19:36:27.459Z,101548.02
2019-02-06T19:38:55.956Z,101552.45
2019-02-06T19:41:24.426Z,101546.27
2019-02-06T19:43:52.918Z,101544.95
2019-02-06T19:46:21.393Z,101548.50
2019-02-06T19:48:49.880Z,101545.84
2019-02-06T19:51:18.407Z,101533.47
2019-02-06T19:53:47.074Z,101534.78
2019-02-06T19:56:15.571Z,101537.45
2019-02-06T19:58:44.055Z,101540.11
2019-02-06T20:01:12.590Z,101535.27
2019-02-06T20:03:41.085Z,101535.75
2019-02-06T20:06:11.194Z,101533.05
2019-02-06T20:08:39.682Z,101537.50
2019-02-06T20:11:08.151Z,101537.50
2019-02-06T20:13:36.919Z,101525.54
2019-02-06T20:16:05.450Z,101531.77
2019-02-06T20:18:33.940Z,101534.42
2019-02-06T20:21:02.391Z,101531.36
2019-02-06T20:23:30.877Z,101537.51
2019-02-06T20:25:59.347Z,101535.31
2019-02-06T20:28:27.843Z,101533.11
2019-02-06T20:30:56.824Z,101523.80
2019-02-06T20:33:25.305Z,101526.91
2019-02-06T20:35:53.764Z,101521.64
2019-02-06T20:38:22.257Z,101525.17
2019-02-06T20:40:50.727Z,101520.30
2019-02-06T20:43:22.200Z,101522.09
2019-02-06T20:45:49.401Z,101518.11
2019-02-06T20:48:18.065Z,101518.55
2019-02-06T20:50:46.620Z,101514.16
2019-02-06T20:53:15.109Z,101519.88
2019-02-06T20:55:43.580Z,101510.61
2019-02-06T20:58:12.081Z,101506.17
2019-02-06T21:00:42.375Z,101505.27
2019-02-06T21:03:10.873Z,101504.84
2019-02-06T21:05:39.440Z,101505.73
2019-02-06T21:08:07.924Z,101505.73
2019-02-06T21:10:36.888Z,101501.77
2019-02-06T21:13:06.718Z,101497.80
2019-02-06T21:15:35.617Z,101492.94
2019-02-06T21:18:23.727Z,101496.47
2019-02-06T21:20:52.278Z,101498.25
2019-02-06T21:23:20.825Z,101504.45
2019-02-06T21:25:49.329Z,101508.88
2019-02-06T21:28:17.806Z,101507.56
2019-02-06T21:30:47.043Z,101508.88
2019-02-06T21:33:15.644Z,101504.01
2019-02-06T21:35:44.122Z,101500.49
2019-02-06T21:38:12.587Z,101497.41
2019-02-06T21:40:41.071Z,101510.22
2019-02-06T21:43:09.607Z,101489.91
2019-02-06T21:45:38.087Z,101487.26
2019-02-06T21:48:06.888Z,101481.92
2019-02-06T21:50:35.767Z,101479.31
2019-02-06T21:53:04.486Z,101474.42
2019-02-06T21:55:33.036Z,101478.86
2019-02-06T21:58:01.585Z,101470.46
2019-02-06T22:00:36.069Z,101467.80
2019-02-06T22:03:05.100Z,101459.83
2019-02-06T22:05:33.864Z,101456.73
2019-02-06T22:08:02.423Z,101454.98
2019-02-06T22:10:31.159Z,101452.36
2019-02-06T22:12:59.643Z,101454.55
2019-02-06T22:15:32.535Z,101456.78
2019-02-06T22:18:01.182Z,101451.46
2019-02-06T22:20:30.186Z,101455.44
2019-02-06T22:22:58.650Z,101456.77
2019-02-06T22:25:27.211Z,101461.61
2019-02-06T22:27:55.752Z,101457.21
2019-02-06T22:30:29.439Z,101446.61
2019-02-06T22:32:58.249Z,101451.91
2019-02-06T22:35:27.160Z,101442.64
2019-02-06T22:37:55.860Z,101426.27
2019-02-06T22:40:25.780Z,101419.66
2019-02-06T22:42:54.698Z,101405.06
2019-02-06T22:45:27.653Z,101409.47
2019-02-06T22:47:56.162Z,101424.05
2019-02-06T22:50:27.295Z,101427.17
2019-02-06T22:52:56.136Z,101441.30
2019-02-06T22:55:24.857Z,101447.03
2019-02-06T22:57:53.718Z,101446.14
2019-02-06T23:00:47.156Z,101448.34
2019-02-06T23:03:30.344Z,101436.43
2019-02-06T23:05:58.827Z,101432.91
2019-02-06T23:08:27.381Z,101429.38
2019-02-06T23:10:56.502Z,101421.84
2019-02-06T23:13:25.051Z,101422.72
2019-02-06T23:15:53.841Z,101418.73
2019-02-06T23:18:22.485Z,101418.70
2019-02-06T23:20:50.943Z,101414.30
2019-02-06T23:23:20.589Z,101413.41
2019-02-06T23:25:49.063Z,101412.51
2019-02-06T23:28:17.553Z,101401.51
2019-02-06T23:30:46.216Z,101403.27
2019-02-06T23:33:15.580Z,101406.34
2019-02-06T23:35:44.048Z,101405.00
2019-02-06T23:38:12.539Z,101401.48
2019-02-06T23:40:41.341Z,101396.61
2019-02-06T23:43:09.912Z,101379.84
2019-02-06T23:45:39.486Z,101377.18
2019-02-06T23:48:08.046Z,101373.64
2019-02-06T23:50:36.514Z,101370.07
2019-02-06T23:53:05.437Z,101370.09
2019-02-06T23:55:33.912Z,101363.48
2019-02-06T23:58:02.668Z,101368.81
